createdAt,value
2023-11-22T00:02:31.658Z,10.98
2023-11-22T00:05:35.778Z,11.17
2023-11-22T00:08:39.998Z,10.94
2023-11-22T00:11:44.085Z,10.96
2023-11-22T00:14:48.329Z,11.08
2023-11-22T00:17:52.848Z,10.86
2023-11-22T00:20:58.628Z,10.60
2023-11-22T00:24:02.645Z,11.04
2023-11-22T00:27:06.841Z,10.88
2023-11-22T00:30:11.440Z,10.86
2023-11-22T00:33:15.879Z,10.52
2023-11-22T00:36:20.895Z,10.47
2023-11-22T00:39:25.228Z,10.79
2023-11-22T00:42:29.330Z,11.08
2023-11-22T00:45:34.873Z,11.07
2023-11-22T00:48:39.145Z,10.29
2023-11-22T00:51:43.433Z,11.07
2023-11-22T00:54:47.653Z,10.75
2023-11-22T00:57:51.852Z,10.67
2023-11-22T01:00:56.090Z,10.99
2023-11-22T01:04:00.729Z,10.77
2023-11-22T01:07:07.890Z,10.93
2023-11-22T01:10:11.897Z,10.91
2023-11-22T01:13:16.267Z,10.55
2023-11-22T01:16:20.483Z,10.50
2023-11-22T01:19:24.998Z,10.43
2023-11-22T01:22:29.476Z,10.53
2023-11-22T01:25:34.067Z,10.66
2023-11-22T01:28:38.449Z,10.12
2023-11-22T01:31:43.215Z,10.38
2023-11-22T01:34:47.662Z,9.30
2023-11-22T01:37:52.994Z,8.92
2023-11-22T01:40:57.101Z,8.96
2023-11-22T01:44:01.114Z,8.80
2023-11-22T01:47:05.982Z,9.46
2023-11-22T01:50:10.996Z,8.89
2023-11-22T01:53:17.374Z,8.80
2023-11-22T01:56:22.323Z,9.24
2023-11-22T01:59:31.110Z,9.06
2023-11-22T02:02:35.891Z,8.67
2023-11-22T02:05:44.468Z,8.90
2023-11-22T02:08:49.216Z,9.00
2023-11-22T02:11:53.479Z,9.00
2023-11-22T02:14:57.761Z,9.03
2023-11-22T02:18:08.150Z,8.96
2023-11-22T02:21:22.682Z,8.77
2023-11-22T02:24:27.879Z,9.22
2023-11-22T02:27:34.175Z,8.69
2023-11-22T02:30:38.551Z,8.97
2023-11-22T02:33:45.003Z,8.88
2023-11-22T02:36:57.773Z,9.10
2023-11-22T02:40:19.094Z,8.93
2023-11-22T02:43:24.803Z,8.82
2023-11-22T02:46:30.272Z,9.09
2023-11-22T02:49:34.674Z,8.78
2023-11-22T02:52:39.003Z,8.83
2023-11-22T02:55:43.205Z,8.72
2023-11-22T02:58:47.438Z,8.80
2023-11-22T03:01:52.467Z,8.27
2023-11-22T03:04:59.255Z,8.56
2023-11-22T03:08:04.406Z,8.49
2023-11-22T03:11:08.461Z,8.77
2023-11-22T03:14:12.386Z,8.81
2023-11-22T03:17:16.822Z,8.69
2023-11-22T03:20:21.075Z,8.13
2023-11-22T03:23:26.446Z,7.76
2023-11-22T03:26:31.100Z,8.27
2023-11-22T03:29:36.085Z,8.21
2023-11-22T03:32:40.887Z,8.00
2023-11-22T03:35:45.324Z,8.17
2023-11-22T03:38:49.664Z,8.37
2023-11-22T03:41:53.440Z,8.41
2023-11-22T03:45:00.086Z,8.37
2023-11-22T03:48:06.992Z,8.46
2023-11-22T03:51:11.452Z,8.27
2023-11-22T03:54:15.573Z,8.09
2023-11-22T03:57:19.881Z,8.50
2023-11-22T04:00:27.419Z,8.33
2023-11-22T04:03:34.102Z,8.39
2023-11-22T04:06:38.192Z,8.44
2023-11-22T04:09:42.795Z,8.41
2023-11-22T04:12:47.872Z,8.26
2023-11-22T04:15:52.420Z,8.40
2023-11-22T04:18:57.004Z,8.05
2023-11-22T04:22:02.277Z,8.04
2023-11-22T04:25:06.686Z,8.18
2023-11-22T04:28:11.127Z,8.07
2023-11-22T04:31:16.614Z,8.05
2023-11-22T04:34:21.421Z,7.85
2023-11-22T04:37:27.851Z,8.01
2023-11-22T04:40:31.793Z,7.89
2023-11-22T04:43:36.057Z,7.51
2023-11-22T04:46:40.492Z,7.42
2023-11-22T04:49:44.749Z,6.69
2023-11-22T04:52:49.000Z,6.97
2023-11-22T04:55:52.904Z,6.94
2023-11-22T04:58:57.590Z,7.10
2023-11-22T05:02:01.891Z,6.98
2023-11-22T05:05:07.113Z,7.27
2023-11-22T05:08:11.048Z,7.32
2023-11-22T05:11:16.855Z,7.45
2023-11-22T05:14:21.134Z,7.44
2023-11-22T05:17:25.216Z,7.46
2023-11-22T05:20:31.413Z,7.34
2023-11-22T05:23:38.667Z,7.54
2023-11-22T05:26:43.074Z,7.63
2023-11-22T05:29:53.037Z,7.22
2023-11-22T05:33:00.948Z,7.50
2023-11-22T05:36:05.397Z,7.13
2023-11-22T05:39:10.487Z,7.15
2023-11-22T05:42:14.715Z,7.39
2023-11-22T05:45:18.886Z,7.20
2023-11-22T05:48:24.769Z,6.77
2023-11-22T05:51:29.090Z,7.10
2023-11-22T05:54:33.599Z,7.03
2023-11-22T05:57:37.608Z,6.88
2023-11-22T06:00:41.941Z,7.13
2023-11-22T06:03:46.319Z,6.84
2023-11-22T06:06:52.298Z,6.70
2023-11-22T06:09:56.373Z,7.06
2023-11-22T06:13:00.548Z,6.76
2023-11-22T06:16:04.977Z,7.07
2023-11-22T06:19:08.962Z,6.77
2023-11-22T06:22:13.335Z,6.76
2023-11-22T06:25:17.408Z,6.72
2023-11-22T06:28:21.752Z,6.41
2023-11-22T06:31:25.908Z,6.73
2023-11-22T06:34:33.146Z,6.53
2023-11-22T06:37:37.205Z,6.78
2023-11-22T06:40:41.656Z,6.78
2023-11-22T06:43:46.009Z,6.68
2023-11-22T06:46:50.270Z,6.31
2023-11-22T06:49:54.497Z,6.44
2023-11-22T06:52:58.893Z,6.41
2023-11-22T06:56:04.764Z,6.43
2023-11-22T06:59:10.209Z,6.24
2023-11-22T07:02:16.346Z,6.42
2023-11-22T07:05:20.918Z,6.51
2023-11-22T07:08:27.006Z,6.44
2023-11-22T07:11:31.902Z,6.16
2023-11-22T07:14:36.045Z,6.35
2023-11-22T07:17:40.826Z,6.68
2023-11-22T07:20:45.285Z,6.83
2023-11-22T07:23:51.389Z,6.91
2023-11-22T07:26:56.675Z,7.09
2023-11-22T07:30:02.145Z,7.05
2023-11-22T07:33:07.650Z,6.94
2023-11-22T07:36:15.519Z,7.30
2023-11-22T07:39:21.475Z,7.02
2023-11-22T07:42:25.771Z,7.23
2023-11-22T07:45:30.010Z,6.96
2023-11-22T07:48:34.673Z,6.81
2023-11-22T07:51:38.656Z,6.98
2023-11-22T07:54:42.534Z,7.04
2023-11-22T07:57:46.866Z,7.23
2023-11-22T08:00:50.829Z,7.31
2023-11-22T08:03:56.982Z,7.59
2023-11-22T08:07:02.691Z,7.83
2023-11-22T08:10:18.428Z,7.83
2023-11-22T08:13:25.230Z,8.12
2023-11-22T08:16:29.640Z,8.37
2023-11-22T08:19:34.427Z,8.55
2023-11-22T08:22:40.039Z,9.02
2023-11-22T08:25:45.942Z,9.38
2023-11-22T08:28:50.036Z,9.91
2023-11-22T08:31:54.136Z,10.04
2023-11-22T08:34:59.122Z,10.74
2023-11-22T08:38:04.510Z,11.22
2023-11-22T08:41:09.579Z,11.60
2023-11-22T08:44:13.402Z,11.90
2023-11-22T08:47:19.093Z,12.45
2023-11-22T08:50:24.098Z,12.89
2023-11-22T08:53:28.478Z,13.21
2023-11-22T08:56:34.817Z,13.24
2023-11-22T08:59:39.514Z,13.18
2023-11-22T09:02:43.850Z,13.61
2023-11-22T09:05:48.215Z,13.77
2023-11-22T09:08:52.677Z,14.39
2023-11-22T09:11:59.997Z,14.75
2023-11-22T09:15:05.166Z,15.69
2023-11-22T09:18:09.461Z,16.91
2023-11-22T09:21:16.096Z,18.33
2023-11-22T09:24:21.533Z,19.43
2023-11-22T09:27:26.615Z,19.43
2023-11-22T09:30:59.078Z,18.02
2023-11-22T09:34:04.531Z,17.43
2023-11-22T09:37:13.198Z,17.08
2023-11-22T09:40:18.964Z,17.09
2023-11-22T09:43:24.891Z,17.21
2023-11-22T09:46:31.558Z,17.22
2023-11-22T09:49:36.089Z,14.66
2023-11-22T09:52:43.120Z,14.44
2023-11-22T09:55:47.444Z,14.58
2023-11-22T09:58:56.903Z,14.33
2023-11-22T10:02:00.874Z,14.37
2023-11-22T10:05:05.266Z,14.29
2023-11-22T10:08:12.582Z,14.10
2023-11-22T10:11:22.427Z,13.73
2023-11-22T10:14:29.443Z,14.25
2023-11-22T10:17:33.587Z,14.47
2023-11-22T10:20:40.245Z,14.78
2023-11-22T10:23:45.251Z,15.05
2023-11-22T10:26:52.895Z,15.34
2023-11-22T10:29:56.861Z,14.91
2023-11-22T10:33:01.277Z,13.86
2023-11-22T10:36:05.569Z,14.71
2023-11-22T10:39:16.719Z,14.97
2023-11-22T10:42:23.034Z,15.79
2023-11-22T10:45:31.256Z,15.23
2023-11-22T10:48:35.405Z,16.14
2023-11-22T10:51:41.774Z,16.92
2023-11-22T10:54:52.087Z,17.35
2023-11-22T10:58:03.554Z,16.23
2023-11-22T11:01:08.234Z,15.25
2023-11-22T11:04:26.194Z,15.55
2023-11-22T11:07:31.599Z,16.73
2023-11-22T11:10:35.672Z,17.60
2023-11-22T11:13:40.930Z,19.16
2023-11-22T11:16:50.077Z,20.06
2023-11-22T11:19:54.302Z,21.03
2023-11-22T11:22:59.788Z,19.02
2023-11-22T11:26:16.949Z,19.75
2023-11-22T11:29:45.126Z,19.85
2023-11-22T11:32:51.338Z,20.46
2023-11-22T11:35:58.077Z,20.69
2023-11-22T11:39:16.099Z,19.57
2023-11-22T11:42:22.191Z,21.72
2023-11-22T11:45:28.523Z,21.85
2023-11-22T11:48:32.769Z,23.30
2023-11-22T11:51:38.780Z,23.01
2023-11-22T11:54:46.061Z,22.31
2023-11-22T11:57:50.537Z,22.97
2023-11-22T12:00:56.329Z,22.57
2023-11-22T12:04:04.206Z,20.42
2023-11-22T12:07:13.335Z,18.70
2023-11-22T12:10:18.649Z,17.21
2023-11-22T12:13:22.912Z,17.92
2023-11-22T12:16:28.312Z,20.75
2023-11-22T12:19:32.931Z,20.63
2023-11-22T12:22:42.311Z,17.82
2023-11-22T12:25:46.370Z,16.48
2023-11-22T12:29:00.685Z,14.58
2023-11-22T12:32:09.544Z,14.66
2023-11-22T12:35:13.769Z,12.73
2023-11-22T12:38:18.002Z,12.78
2023-11-22T12:41:23.187Z,11.49
2023-11-22T12:44:27.726Z,10.63
2023-11-22T12:47:36.363Z,11.35
2023-11-22T12:50:40.704Z,10.22
2023-11-22T12:53:48.741Z,11.05
2023-11-22T12:57:00.863Z,11.42
2023-11-22T13:00:08.013Z,11.12
2023-11-22T13:03:17.401Z,10.96
2023-11-22T13:06:21.694Z,10.40
2023-11-22T13:09:25.899Z,10.29
2023-11-22T13:12:30.015Z,10.32
2023-11-22T13:15:33.664Z,10.74
2023-11-22T13:18:38.330Z,10.91
2023-11-22T13:21:42.829Z,11.60
2023-11-22T13:24:47.367Z,11.75
2023-11-22T13:27:54.031Z,11.45
2023-11-22T13:30:57.984Z,10.71
2023-11-22T13:34:02.332Z,11.12
2023-11-22T13:37:06.833Z,10.76
2023-11-22T13:40:17.268Z,10.80
2023-11-22T13:43:21.913Z,11.41
2023-11-22T13:46:27.431Z,11.10
2023-11-22T13:49:31.661Z,10.29
2023-11-22T13:52:35.547Z,10.54
2023-11-22T13:55:39.958Z,10.40
2023-11-22T13:58:43.966Z,10.43
2023-11-22T14:01:49.605Z,9.57
2023-11-22T14:04:54.625Z,10.33
2023-11-22T14:07:59.568Z,9.82
2023-11-22T14:11:04.525Z,9.94
2023-11-22T14:14:11.027Z,10.05
2023-11-22T14:17:16.040Z,9.80
2023-11-22T14:20:22.252Z,9.79
2023-11-22T14:23:26.867Z,10.55
2023-11-22T14:26:31.086Z,10.01
2023-11-22T14:29:35.049Z,10.70
2023-11-22T14:32:39.048Z,10.45
2023-11-22T14:35:45.192Z,10.34
2023-11-22T14:38:55.155Z,10.35
2023-11-22T14:41:59.119Z,10.61
2023-11-22T14:45:03.639Z,10.69
2023-11-22T14:48:10.784Z,10.52
2023-11-22T14:51:14.711Z,9.47
2023-11-22T14:54:18.910Z,10.46
2023-11-22T14:57:23.260Z,10.19
2023-11-22T15:00:27.509Z,9.91
2023-11-22T15:03:32.643Z,10.15
2023-11-22T15:06:39.606Z,10.14
2023-11-22T15:09:44.988Z,9.67
2023-11-22T15:12:49.682Z,9.93
2023-11-22T15:15:53.555Z,10.03
2023-11-22T15:18:58.101Z,10.40
2023-11-22T15:22:02.913Z,10.09
2023-11-22T15:25:07.241Z,10.24
2023-11-22T15:28:12.224Z,10.48
2023-11-22T15:31:17.585Z,10.63
2023-11-22T15:34:22.642Z,10.28
2023-11-22T15:37:26.945Z,10.34
2023-11-22T15:40:31.329Z,10.18
2023-11-22T15:43:35.787Z,10.14
2023-11-22T15:46:44.046Z,9.95
2023-11-22T15:49:48.251Z,9.95
2023-11-22T15:52:52.736Z,9.94
2023-11-22T15:55:57.038Z,10.13
2023-11-22T15:59:01.790Z,10.07
2023-11-22T16:02:08.135Z,9.02
2023-11-22T16:05:14.745Z,9.09
2023-11-22T16:08:19.985Z,9.03
2023-11-22T16:11:24.748Z,8.94
2023-11-22T16:14:30.273Z,9.42
2023-11-22T16:17:36.943Z,8.89
2023-11-22T16:20:41.020Z,8.56
2023-11-22T16:23:46.020Z,8.96
2023-11-22T16:26:50.460Z,8.65
2023-11-22T16:29:54.710Z,8.68
2023-11-22T16:32:58.576Z,8.92
2023-11-22T16:36:03.140Z,8.61
2023-11-22T16:39:16.700Z,8.91
2023-11-22T16:42:29.162Z,9.41
2023-11-22T16:45:33.618Z,9.51
2023-11-22T16:48:37.600Z,9.57
2023-11-22T16:51:44.897Z,9.90
2023-11-22T16:54:53.816Z,9.68
2023-11-22T16:58:02.123Z,9.38
2023-11-22T17:01:07.953Z,8.94
2023-11-22T17:04:12.315Z,9.30
2023-11-22T17:07:16.320Z,9.42
2023-11-22T17:10:44.611Z,9.38
2023-11-22T17:13:47.470Z,9.35
2023-11-22T17:16:51.715Z,9.31
2023-11-22T17:19:56.058Z,8.93
2023-11-22T17:23:01.767Z,8.78
2023-11-22T17:26:06.266Z,7.96
2023-11-22T17:29:17.614Z,9.13
2023-11-22T17:32:22.293Z,8.04
2023-11-22T17:35:26.838Z,8.84
2023-11-22T17:38:32.541Z,8.50
2023-11-22T17:41:39.862Z,8.94
2023-11-22T17:44:53.034Z,8.66
2023-11-22T17:47:57.434Z,8.88
2023-11-22T17:51:02.991Z,8.78
2023-11-22T17:54:10.794Z,9.28
2023-11-22T17:57:15.524Z,9.21
2023-11-22T18:00:19.818Z,8.87
2023-11-22T18:03:24.466Z,9.43
2023-11-22T18:06:31.389Z,9.21
2023-11-22T18:09:35.199Z,8.33
2023-11-22T18:12:40.450Z,8.76
2023-11-22T18:15:45.140Z,8.63
2023-11-22T18:18:51.328Z,8.82
2023-11-22T18:21:55.578Z,8.19
2023-11-22T18:24:59.738Z,8.66
2023-11-22T18:28:05.468Z,8.50
2023-11-22T18:31:13.347Z,8.67
2023-11-22T18:34:18.808Z,8.49
2023-11-22T18:37:23.662Z,8.60
2023-11-22T18:40:28.352Z,8.01
2023-11-22T18:43:35.850Z,8.40
2023-11-22T18:46:40.256Z,8.67
2023-11-22T18:49:44.478Z,7.71
2023-11-22T18:52:48.465Z,8.71
2023-11-22T18:55:56.094Z,8.40
2023-11-22T18:59:00.042Z,8.03
2023-11-22T19:02:06.239Z,8.08
2023-11-22T19:05:10.825Z,7.58
2023-11-22T19:08:14.962Z,7.31
2023-11-22T19:11:18.907Z,7.95
2023-11-22T19:14:26.611Z,7.53
2023-11-22T19:17:30.692Z,7.84
2023-11-22T19:20:34.622Z,8.00
2023-11-22T19:23:40.523Z,7.77
2023-11-22T19:26:47.160Z,7.64
2023-11-22T19:29:51.102Z,7.75
2023-11-22T19:32:55.010Z,7.47
2023-11-22T19:35:59.076Z,7.74
2023-11-22T19:39:03.087Z,8.02
2023-11-22T19:42:07.507Z,7.56
2023-11-22T19:45:13.361Z,8.13
2023-11-22T19:48:17.448Z,7.96
2023-11-22T19:51:21.528Z,7.70
2023-11-22T19:54:25.646Z,7.88
2023-11-22T19:57:29.665Z,8.04
2023-11-22T20:00:34.715Z,7.85
2023-11-22T20:03:38.890Z,7.97
2023-11-22T20:06:49.430Z,8.32
2023-11-22T20:09:53.339Z,8.28
2023-11-22T20:12:58.022Z,8.37
2023-11-22T20:16:01.897Z,8.34
2023-11-22T20:19:05.823Z,8.41
2023-11-22T20:22:09.798Z,8.03
2023-11-22T20:25:13.613Z,8.07
2023-11-22T20:28:17.597Z,8.71
2023-11-22T20:31:22.929Z,8.20
2023-11-22T20:34:27.247Z,8.56
2023-11-22T20:37:32.453Z,8.50
2023-11-22T20:40:36.452Z,8.27
2023-11-22T20:43:40.302Z,7.79
2023-11-22T20:46:45.356Z,7.97
2023-11-22T20:49:50.111Z,8.48
2023-11-22T20:52:55.186Z,8.48
2023-11-22T20:56:00.352Z,8.21
2023-11-22T20:59:06.340Z,7.92
2023-11-22T21:02:10.596Z,7.64
2023-11-22T21:05:14.673Z,7.67
2023-11-22T21:08:23.728Z,8.08
2023-11-22T21:11:28.449Z,8.18
2023-11-22T21:14:32.655Z,7.80
2023-11-22T21:17:42.083Z,8.25
2023-11-22T21:20:48.977Z,7.97
2023-11-22T21:23:57.195Z,8.03
2023-11-22T21:27:01.779Z,8.14
2023-11-22T21:30:06.298Z,8.32
2023-11-22T21:33:10.344Z,8.85
2023-11-22T21:36:14.975Z,7.98
2023-11-22T21:39:21.835Z,8.37
2023-11-22T21:42:26.193Z,8.42
2023-11-22T21:45:30.406Z,8.42
2023-11-22T21:48:34.948Z,8.05
2023-11-22T21:51:39.148Z,8.43
2023-11-22T21:54:42.968Z,7.69
2023-11-22T21:57:48.049Z,8.03
2023-11-22T22:00:53.382Z,8.38
2023-11-22T22:03:57.414Z,8.29
2023-11-22T22:07:01.609Z,8.03
2023-11-22T22:10:07.107Z,8.20
2023-11-22T22:13:11.376Z,7.75
2023-11-22T22:16:15.698Z,7.77
2023-11-22T22:19:20.859Z,8.00
2023-11-22T22:22:25.642Z,8.30
2023-11-22T22:25:29.761Z,8.05
2023-11-22T22:28:34.141Z,7.96
2023-11-22T22:31:39.449Z,8.45
2023-11-22T22:34:46.538Z,8.63
2023-11-22T22:37:51.084Z,8.83
2023-11-22T22:40:54.996Z,9.02
2023-11-22T22:43:59.246Z,8.60
2023-11-22T22:47:04.127Z,8.14
2023-11-22T22:50:08.870Z,8.26
2023-11-22T22:53:13.205Z,8.07
2023-11-22T22:56:20.538Z,8.88
2023-11-22T22:59:24.838Z,8.79
2023-11-22T23:02:29.233Z,8.43
2023-11-22T23:05:33.533Z,8.88
2023-11-22T23:08:38.634Z,8.64
2023-11-22T23:11:43.729Z,8.50
2023-11-22T23:14:48.044Z,8.46
2023-11-22T23:17:52.530Z,8.06
2023-11-22T23:20:57.100Z,8.20
2023-11-22T23:24:01.463Z,8.66
2023-11-22T23:27:07.240Z,8.66
2023-11-22T23:30:12.646Z,8.67
2023-11-22T23:33:17.155Z,8.71
2023-11-22T23:36:23.514Z,8.70
2023-11-22T23:39:27.767Z,8.50
2023-11-22T23:42:35.403Z,8.73
2023-11-22T23:45:44.624Z,8.46
2023-11-22T23:48:48.922Z,8.72
2023-11-22T23:51:53.284Z,8.89
2023-11-22T23:55:00.431Z,8.59
2023-11-22T23:58:04.421Z,8.76
